sensor_id;sensor_type;location;lat;lon;timestamp;temperature;humidity
6421;DHT22;3243;50.958;7.012;2023-02-14T00:00:57;5.50;99.90
6421;DHT22;3243;50.958;7.012;2023-02-14T00:03:24;5.40;99.90
6421;DHT22;3243;50.958;7.012;2023-02-14T00:05:51;5.40;99.90
6421;DHT22;3243;50.958;7.012;2023-02-14T00:08:18;5.40;99.90
6421;DHT22;3243;50.958;7.012;2023-02-14T00:10:45;5.30;99.90
6421;DHT22;3243;50.958;7.012;2023-02-14T00:13:11;5.30;99.90
6421;DHT22;3243;50.958;7.012;2023-02-14T00:15:38;5.20;99.90
6421;DHT22;3243;50.958;7.012;2023-02-14T00:18:05;5.20;99.90
6421;DHT22;3243;50.958;7.012;2023-02-14T00:20:32;5.20;99.90
6421;DHT22;3243;50.958;7.012;2023-02-14T00:22:58;5.30;99.90
6421;DHT22;3243;50.958;7.012;2023-02-14T00:25:26;5.20;99.90
6421;DHT22;3243;50.958;7.012;2023-02-14T00:27:53;5.20;99.90
6421;DHT22;3243;50.958;7.012;2023-02-14T00:30:21;5.20;99.90
6421;DHT22;3243;50.958;7.012;2023-02-14T00:32:47;5.20;99.90
6421;DHT22;3243;50.958;7.012;2023-02-14T00:35:14;5.30;99.90
6421;DHT22;3243;50.958;7.012;2023-02-14T00:37:41;5.30;99.90
6421;DHT22;3243;50.958;7.012;2023-02-14T00:40:08;5.30;99.90
6421;DHT22;3243;50.958;7.012;2023-02-14T00:42:35;5.30;99.90
6421;DHT22;3243;50.958;7.012;2023-02-14T00:45:02;5.30;99.90
6421;DHT22;3243;50.958;7.012;2023-02-14T00:47:28;5.30;99.90
6421;DHT22;3243;50.958;7.012;2023-02-14T00:49:55;5.30;99.90
6421;DHT22;3243;50.958;7.012;2023-02-14T00:52:29;5.40;99.90
6421;DHT22;3243;50.958;7.012;2023-02-14T00:54:56;5.40;99.90
6421;DHT22;3243;50.958;7.012;2023-02-14T00:57:23;5.30;99.90
6421;DHT22;3243;50.958;7.012;2023-02-14T00:59:50;5.30;99.90
6421;DHT22;3243;50.958;7.012;2023-02-14T01:02:17;5.30;99.90
6421;DHT22;3243;50.958;7.012;2023-02-14T01:04:44;5.30;99.90
6421;DHT22;3243;50.958;7.012;2023-02-14T01:07:10;5.30;99.90
6421;DHT22;3243;50.958;7.012;2023-02-14T01:09:37;5.30;99.90
6421;DHT22;3243;50.958;7.012;2023-02-14T01:12:04;5.30;99.90
6421;DHT22;3243;50.958;7.012;2023-02-14T01:14:31;5.30;99.90
6421;DHT22;3243;50.958;7.012;2023-02-14T01:16:57;5.20;99.90
6421;DHT22;3243;50.958;7.012;2023-02-14T01:19:24;5.20;99.90
6421;DHT22;3243;50.958;7.012;2023-02-14T01:21:51;5.20;99.90
6421;DHT22;3243;50.958;7.012;2023-02-14T01:24:18;5.10;99.90
6421;DHT22;3243;50.958;7.012;2023-02-14T01:26:44;5.20;99.90
6421;DHT22;3243;50.958;7.012;2023-02-14T01:29:11;5.10;99.90
6421;DHT22;3243;50.958;7.012;2023-02-14T01:31:38;5.10;99.90
6421;DHT22;3243;50.958;7.012;2023-02-14T01:34:05;5.10;99.90
6421;DHT22;3243;50.958;7.012;2023-02-14T01:36:37;5.00;99.90
6421;DHT22;3243;50.958;7.012;2023-02-14T01:39:07;5.00;99.90
6421;DHT22;3243;50.958;7.012;2023-02-14T01:41:36;5.00;99.90
6421;DHT22;3243;50.958;7.012;2023-02-14T01:46:34;5.00;99.90
6421;DHT22;3243;50.958;7.012;2023-02-14T01:49:09;5.00;99.90
6421;DHT22;3243;50.958;7.012;2023-02-14T01:51:42;4.90;99.90
6421;DHT22;3243;50.958;7.012;2023-02-14T01:54:10;4.90;99.90
6421;DHT22;3243;50.958;7.012;2023-02-14T01:56:43;4.90;99.90
6421;DHT22;3243;50.958;7.012;2023-02-14T01:59:14;4.90;99.90
6421;DHT22;3243;50.958;7.012;2023-02-14T02:01:42;4.90;99.90
6421;DHT22;3243;50.958;7.012;2023-02-14T02:04:23;4.90;99.90
6421;DHT22;3243;50.958;7.012;2023-02-14T02:07:02;4.90;99.90
6421;DHT22;3243;50.958;7.012;2023-02-14T02:09:34;4.90;99.90
6421;DHT22;3243;50.958;7.012;2023-02-14T02:12:02;4.90;99.90
6421;DHT22;3243;50.958;7.012;2023-02-14T02:14:29;4.90;99.90
6421;DHT22;3243;50.958;7.012;2023-02-14T02:25:27;4.80;99.90
6421;DHT22;3243;50.958;7.012;2023-02-14T02:44:57;4.60;99.90
6421;DHT22;3243;50.958;7.012;2023-02-14T02:48:15;4.60;99.90
6421;DHT22;3243;50.958;7.012;2023-02-14T02:53:18;4.50;99.90
6421;DHT22;3243;50.958;7.012;2023-02-14T02:56:24;4.50;99.90
6421;DHT22;3243;50.958;7.012;2023-02-14T02:59:20;4.50;99.90
6421;DHT22;3243;50.958;7.012;2023-02-14T03:02:14;4.50;99.90
6421;DHT22;3243;50.958;7.012;2023-02-14T03:04:46;4.50;99.90
6421;DHT22;3243;50.958;7.012;2023-02-14T03:17:58;4.50;99.90
6421;DHT22;3243;50.958;7.012;2023-02-14T03:20:44;4.40;99.90
6421;DHT22;3243;50.958;7.012;2023-02-14T03:23:20;4.50;99.90
6421;DHT22;3243;50.958;7.012;2023-02-14T03:31:11;4.40;99.90
6421;DHT22;3243;50.958;7.012;2023-02-14T03:33:58;4.40;99.90
6421;DHT22;3243;50.958;7.012;2023-02-14T03:37:11;4.30;99.90
6421;DHT22;3243;50.958;7.012;2023-02-14T03:40:07;4.30;99.90
6421;DHT22;3243;50.958;7.012;2023-02-14T03:42:41;4.30;99.90
6421;DHT22;3243;50.958;7.012;2023-02-14T03:45:13;4.30;99.90
6421;DHT22;3243;50.958;7.012;2023-02-14T03:47:43;4.30;99.90
6421;DHT22;3243;50.958;7.012;2023-02-14T03:50:16;4.20;99.90
6421;DHT22;3243;50.958;7.012;2023-02-14T03:52:45;4.20;99.90
6421;DHT22;3243;50.958;7.012;2023-02-14T03:55:15;4.00;99.90
6421;DHT22;3243;50.958;7.012;2023-02-14T03:57:56;4.10;99.90
6421;DHT22;3243;50.958;7.012;2023-02-14T04:00:24;4.10;99.90
6421;DHT22;3243;50.958;7.012;2023-02-14T04:02:54;4.10;99.90
6421;DHT22;3243;50.958;7.012;2023-02-14T04:05:25;4.10;99.90
6421;DHT22;3243;50.958;7.012;2023-02-14T04:07:55;4.10;99.90
6421;DHT22;3243;50.958;7.012;2023-02-14T04:10:22;4.00;99.90
6421;DHT22;3243;50.958;7.012;2023-02-14T04:12:50;4.10;99.90
6421;DHT22;3243;50.958;7.012;2023-02-14T04:15:17;4.00;99.90
6421;DHT22;3243;50.958;7.012;2023-02-14T04:17:44;4.00;99.90
6421;DHT22;3243;50.958;7.012;2023-02-14T04:20:29;4.00;99.90
6421;DHT22;3243;50.958;7.012;2023-02-14T04:22:56;3.90;99.90
6421;DHT22;3243;50.958;7.012;2023-02-14T04:25:23;3.90;99.90
6421;DHT22;3243;50.958;7.012;2023-02-14T04:27:50;3.80;99.90
6421;DHT22;3243;50.958;7.012;2023-02-14T04:30:17;3.80;99.90
6421;DHT22;3243;50.958;7.012;2023-02-14T04:32:44;3.80;99.90
6421;DHT22;3243;50.958;7.012;2023-02-14T04:35:11;3.80;99.90
6421;DHT22;3243;50.958;7.012;2023-02-14T04:37:38;3.70;99.90
6421;DHT22;3243;50.958;7.012;2023-02-14T04:40:05;3.70;99.90
6421;DHT22;3243;50.958;7.012;2023-02-14T04:42:32;3.70;99.90
6421;DHT22;3243;50.958;7.012;2023-02-14T04:44:59;3.70;99.90
6421;DHT22;3243;50.958;7.012;2023-02-14T04:47:29;3.80;99.90
6421;DHT22;3243;50.958;7.012;2023-02-14T04:49:56;3.70;99.90
6421;DHT22;3243;50.958;7.012;2023-02-14T04:54:50;3.70;99.90
6421;DHT22;3243;50.958;7.012;2023-02-14T04:57:16;3.70;99.90
6421;DHT22;3243;50.958;7.012;2023-02-14T04:59:43;3.70;99.90
6421;DHT22;3243;50.958;7.012;2023-02-14T05:02:10;3.70;99.90
6421;DHT22;3243;50.958;7.012;2023-02-14T05:04:37;3.50;99.90
6421;DHT22;3243;50.958;7.012;2023-02-14T05:07:03;3.60;99.90
6421;DHT22;3243;50.958;7.012;2023-02-14T05:09:30;3.60;99.90
6421;DHT22;3243;50.958;7.012;2023-02-14T05:11:57;3.60;99.90
6421;DHT22;3243;50.958;7.012;2023-02-14T05:14:24;3.70;99.90
6421;DHT22;3243;50.958;7.012;2023-02-14T05:16:50;3.60;99.90
6421;DHT22;3243;50.958;7.012;2023-02-14T05:19:17;3.60;99.90
6421;DHT22;3243;50.958;7.012;2023-02-14T05:21:44;3.60;99.90
6421;DHT22;3243;50.958;7.012;2023-02-14T05:24:10;3.50;99.90
6421;DHT22;3243;50.958;7.012;2023-02-14T05:26:37;3.50;99.90
6421;DHT22;3243;50.958;7.012;2023-02-14T05:29:04;3.50;99.90
6421;DHT22;3243;50.958;7.012;2023-02-14T05:31:30;3.50;99.90
6421;DHT22;3243;50.958;7.012;2023-02-14T05:33:57;3.50;99.90
6421;DHT22;3243;50.958;7.012;2023-02-14T05:36:24;3.50;99.90
6421;DHT22;3243;50.958;7.012;2023-02-14T05:38:51;3.50;99.90
6421;DHT22;3243;50.958;7.012;2023-02-14T05:41:18;3.50;99.90
6421;DHT22;3243;50.958;7.012;2023-02-14T05:48:39;3.40;99.90
6421;DHT22;3243;50.958;7.012;2023-02-14T05:51:08;3.40;99.90
6421;DHT22;3243;50.958;7.012;2023-02-14T05:56:02;3.40;99.90
6421;DHT22;3243;50.958;7.012;2023-02-14T05:58:29;3.30;99.90
6421;DHT22;3243;50.958;7.012;2023-02-14T06:00:57;3.30;99.90
6421;DHT22;3243;50.958;7.012;2023-02-14T06:03:25;3.20;99.90
6421;DHT22;3243;50.958;7.012;2023-02-14T06:05:51;3.20;99.90
6421;DHT22;3243;50.958;7.012;2023-02-14T06:13:12;3.10;99.90
6421;DHT22;3243;50.958;7.012;2023-02-14T06:15:39;3.10;99.90
6421;DHT22;3243;50.958;7.012;2023-02-14T06:18:06;3.10;99.90
6421;DHT22;3243;50.958;7.012;2023-02-14T06:20:33;3.10;99.90
6421;DHT22;3243;50.958;7.012;2023-02-14T06:23:00;3.10;99.90
6421;DHT22;3243;50.958;7.012;2023-02-14T06:25:27;3.10;99.90
6421;DHT22;3243;50.958;7.012;2023-02-14T06:27:57;3.10;99.90
6421;DHT22;3243;50.958;7.012;2023-02-14T06:30:25;3.20;99.90
6421;DHT22;3243;50.958;7.012;2023-02-14T06:32:52;3.20;99.90
6421;DHT22;3243;50.958;7.012;2023-02-14T06:35:18;3.20;99.90
6421;DHT22;3243;50.958;7.012;2023-02-14T06:37:45;3.30;99.90
6421;DHT22;3243;50.958;7.012;2023-02-14T06:40:13;3.20;99.90
6421;DHT22;3243;50.958;7.012;2023-02-14T06:42:40;3.30;99.90
6421;DHT22;3243;50.958;7.012;2023-02-14T06:45:07;3.30;99.90
6421;DHT22;3243;50.958;7.012;2023-02-14T06:47:34;3.30;99.90
6421;DHT22;3243;50.958;7.012;2023-02-14T06:50:01;3.30;99.90
6421;DHT22;3243;50.958;7.012;2023-02-14T06:52:31;3.30;99.90
6421;DHT22;3243;50.958;7.012;2023-02-14T06:54:58;3.30;99.90
6421;DHT22;3243;50.958;7.012;2023-02-14T06:57:25;3.30;99.90
6421;DHT22;3243;50.958;7.012;2023-02-14T06:59:52;3.40;99.90
6421;DHT22;3243;50.958;7.012;2023-02-14T07:02:18;3.40;99.90
6421;DHT22;3243;50.958;7.012;2023-02-14T07:04:47;3.40;99.90
6421;DHT22;3243;50.958;7.012;2023-02-14T07:07:14;3.50;99.90
6421;DHT22;3243;50.958;7.012;2023-02-14T07:09:41;3.40;99.90
6421;DHT22;3243;50.958;7.012;2023-02-14T07:12:07;3.50;99.90
6421;DHT22;3243;50.958;7.012;2023-02-14T07:14:34;3.50;99.90
6421;DHT22;3243;50.958;7.012;2023-02-14T07:17:01;3.50;99.90
6421;DHT22;3243;50.958;7.012;2023-02-14T07:19:28;3.50;99.90
6421;DHT22;3243;50.958;7.012;2023-02-14T07:24:21;3.60;99.90
6421;DHT22;3243;50.958;7.012;2023-02-14T07:26:48;3.60;99.90
6421;DHT22;3243;50.958;7.012;2023-02-14T07:29:15;3.60;99.90
6421;DHT22;3243;50.958;7.012;2023-02-14T07:31:42;3.70;99.90
6421;DHT22;3243;50.958;7.012;2023-02-14T07:34:09;3.70;99.90
6421;DHT22;3243;50.958;7.012;2023-02-14T07:36:37;3.80;99.90
6421;DHT22;3243;50.958;7.012;2023-02-14T07:39:04;3.90;99.90
6421;DHT22;3243;50.958;7.012;2023-02-14T07:41:31;3.80;99.90
6421;DHT22;3243;50.958;7.012;2023-02-14T07:43:58;3.80;99.90
6421;DHT22;3243;50.958;7.012;2023-02-14T07:46:24;3.90;99.90
6421;DHT22;3243;50.958;7.012;2023-02-14T07:48:51;4.00;99.90
6421;DHT22;3243;50.958;7.012;2023-02-14T07:51:18;4.00;99.90
6421;DHT22;3243;50.958;7.012;2023-02-14T07:53:45;4.00;99.90
6421;DHT22;3243;50.958;7.012;2023-02-14T07:56:12;4.20;99.90
6421;DHT22;3243;50.958;7.012;2023-02-14T07:58:38;4.20;99.90
6421;DHT22;3243;50.958;7.012;2023-02-14T08:03:32;4.30;99.90
6421;DHT22;3243;50.958;7.012;2023-02-14T08:05:59;4.40;99.90
6421;DHT22;3243;50.958;7.012;2023-02-14T08:08:27;4.50;99.90
6421;DHT22;3243;50.958;7.012;2023-02-14T08:10:54;4.50;99.90
6421;DHT22;3243;50.958;7.012;2023-02-14T08:13:21;4.60;99.90
6421;DHT22;3243;50.958;7.012;2023-02-14T08:15:48;4.70;99.90
6421;DHT22;3243;50.958;7.012;2023-02-14T08:18:36;4.80;99.90
6421;DHT22;3243;50.958;7.012;2023-02-14T08:21:04;4.80;99.90
6421;DHT22;3243;50.958;7.012;2023-02-14T08:25:58;5.00;99.90
6421;DHT22;3243;50.958;7.012;2023-02-14T08:30:52;5.20;99.90
6421;DHT22;3243;50.958;7.012;2023-02-14T08:33:20;5.30;99.90
6421;DHT22;3243;50.958;7.012;2023-02-14T08:35:47;5.30;99.90
6421;DHT22;3243;50.958;7.012;2023-02-14T08:38:14;5.50;99.90
6421;DHT22;3243;50.958;7.012;2023-02-14T08:40:41;5.50;99.90
6421;DHT22;3243;50.958;7.012;2023-02-14T08:43:08;5.60;99.90
6421;DHT22;3243;50.958;7.012;2023-02-14T08:48:04;5.80;99.90
6421;DHT22;3243;50.958;7.012;2023-02-14T08:50:31;5.90;99.90
6421;DHT22;3243;50.958;7.012;2023-02-14T08:52:58;5.90;99.90
6421;DHT22;3243;50.958;7.012;2023-02-14T08:55:25;6.10;99.90
6421;DHT22;3243;50.958;7.012;2023-02-14T08:57:55;6.10;99.90
6421;DHT22;3243;50.958;7.012;2023-02-14T09:00:23;6.20;99.90
6421;DHT22;3243;50.958;7.012;2023-02-14T09:02:51;6.20;99.90
6421;DHT22;3243;50.958;7.012;2023-02-14T09:05:19;6.30;99.90
6421;DHT22;3243;50.958;7.012;2023-02-14T09:07:45;6.40;99.90
6421;DHT22;3243;50.958;7.012;2023-02-14T09:10:12;6.50;99.90
6421;DHT22;3243;50.958;7.012;2023-02-14T09:12:40;6.60;99.90
6421;DHT22;3243;50.958;7.012;2023-02-14T09:15:09;6.60;99.90
6421;DHT22;3243;50.958;7.012;2023-02-14T09:17:36;6.70;99.90
6421;DHT22;3243;50.958;7.012;2023-02-14T09:20:05;6.80;99.90
6421;DHT22;3243;50.958;7.012;2023-02-14T09:22:33;6.80;99.90
6421;DHT22;3243;50.958;7.012;2023-02-14T09:25:00;6.90;99.90
6421;DHT22;3243;50.958;7.012;2023-02-14T09:27:27;6.90;99.90
6421;DHT22;3243;50.958;7.012;2023-02-14T09:29:53;7.10;99.90
6421;DHT22;3243;50.958;7.012;2023-02-14T09:32:20;7.10;99.90
6421;DHT22;3243;50.958;7.012;2023-02-14T09:34:47;7.10;99.90
6421;DHT22;3243;50.958;7.012;2023-02-14T09:37:14;7.20;99.90
6421;DHT22;3243;50.958;7.012;2023-02-14T09:39:41;7.20;99.90
6421;DHT22;3243;50.958;7.012;2023-02-14T09:42:50;7.30;99.90
6421;DHT22;3243;50.958;7.012;2023-02-14T09:45:23;7.40;99.90
6421;DHT22;3243;50.958;7.012;2023-02-14T09:52:55;7.60;99.90
6421;DHT22;3243;50.958;7.012;2023-02-14T09:55:26;7.70;99.90
6421;DHT22;3243;50.958;7.012;2023-02-14T09:58:10;7.70;99.90
6421;DHT22;3243;50.958;7.012;2023-02-14T10:00:45;7.80;99.90
6421;DHT22;3243;50.958;7.012;2023-02-14T10:03:36;7.90;99.90
6421;DHT22;3243;50.958;7.012;2023-02-14T10:06:22;7.90;99.90
6421;DHT22;3243;50.958;7.012;2023-02-14T10:11:39;8.10;99.90
6421;DHT22;3243;50.958;7.012;2023-02-14T10:14:13;8.20;99.90
6421;DHT22;3243;50.958;7.012;2023-02-14T10:16:54;8.30;99.90
6421;DHT22;3243;50.958;7.012;2023-02-14T10:19:30;8.30;99.90
6421;DHT22;3243;50.958;7.012;2023-02-14T10:22:41;8.40;99.90
6421;DHT22;3243;50.958;7.012;2023-02-14T10:25:00;8.50;99.90
6421;DHT22;3243;50.958;7.012;2023-02-14T10:27:55;8.50;99.90
6421;DHT22;3243;50.958;7.012;2023-02-14T10:30:22;8.60;99.90
6421;DHT22;3243;50.958;7.012;2023-02-14T10:33:19;8.60;99.90
6421;DHT22;3243;50.958;7.012;2023-02-14T10:35:48;8.70;99.90
6421;DHT22;3243;50.958;7.012;2023-02-14T10:43:46;8.90;99.90
6421;DHT22;3243;50.958;7.012;2023-02-14T10:49:12;9.00;99.90
6421;DHT22;3243;50.958;7.012;2023-02-14T10:54:38;9.20;99.90
6421;DHT22;3243;50.958;7.012;2023-02-14T11:00:00;9.30;99.90
6421;DHT22;3243;50.958;7.012;2023-02-14T11:02:36;9.40;99.90
6421;DHT22;3243;50.958;7.012;2023-02-14T11:05:06;9.40;99.90
6421;DHT22;3243;50.958;7.012;2023-02-14T11:07:33;9.50;99.90
6421;DHT22;3243;50.958;7.012;2023-02-14T11:10:00;9.60;99.90
6421;DHT22;3243;50.958;7.012;2023-02-14T11:12:35;9.60;99.90
6421;DHT22;3243;50.958;7.012;2023-02-14T11:17:45;9.70;99.90
6421;DHT22;3243;50.958;7.012;2023-02-14T11:22:45;9.80;99.90
6421;DHT22;3243;50.958;7.012;2023-02-14T11:25:25;9.80;99.90
6421;DHT22;3243;50.958;7.012;2023-02-14T11:27:59;9.80;99.90
6421;DHT22;3243;50.958;7.012;2023-02-14T11:30:33;9.80;99.90
6421;DHT22;3243;50.958;7.012;2023-02-14T11:33:00;9.90;99.90
6421;DHT22;3243;50.958;7.012;2023-02-14T11:35:28;10.00;99.90
6421;DHT22;3243;50.958;7.012;2023-02-14T11:38:02;10.00;99.90
6421;DHT22;3243;50.958;7.012;2023-02-14T11:40:34;10.10;99.90
6421;DHT22;3243;50.958;7.012;2023-02-14T11:45:42;10.20;99.90
6421;DHT22;3243;50.958;7.012;2023-02-14T11:48:22;10.20;99.90
6421;DHT22;3243;50.958;7.012;2023-02-14T11:51:10;10.20;99.90
6421;DHT22;3243;50.958;7.012;2023-02-14T11:53:52;10.30;99.90
6421;DHT22;3243;50.958;7.012;2023-02-14T11:56:22;10.40;99.90
6421;DHT22;3243;50.958;7.012;2023-02-14T12:01:32;10.40;99.90
6421;DHT22;3243;50.958;7.012;2023-02-14T12:04:02;10.50;99.90
6421;DHT22;3243;50.958;7.012;2023-02-14T12:06:32;10.50;99.90
6421;DHT22;3243;50.958;7.012;2023-02-14T12:12:02;10.70;99.90
6421;DHT22;3243;50.958;7.012;2023-02-14T12:14:35;10.70;99.90
6421;DHT22;3243;50.958;7.012;2023-02-14T12:19:46;10.90;99.90
6421;DHT22;3243;50.958;7.012;2023-02-14T12:22:38;11.00;99.90
6421;DHT22;3243;50.958;7.012;2023-02-14T12:25:17;11.00;99.90
6421;DHT22;3243;50.958;7.012;2023-02-14T12:27:51;11.10;99.90
6421;DHT22;3243;50.958;7.012;2023-02-14T12:30:22;11.20;99.90
6421;DHT22;3243;50.958;7.012;2023-02-14T12:32:51;11.10;99.90
6421;DHT22;3243;50.958;7.012;2023-02-14T12:46:34;11.30;99.90
6421;DHT22;3243;50.958;7.012;2023-02-14T12:49:31;11.40;99.90
6421;DHT22;3243;50.958;7.012;2023-02-14T12:55:23;11.30;99.90
6421;DHT22;3243;50.958;7.012;2023-02-14T12:57:59;11.50;99.90
6421;DHT22;3243;50.958;7.012;2023-02-14T13:20:05;11.80;99.90
6421;DHT22;3243;50.958;7.012;2023-02-14T13:22:38;11.80;99.90
6421;DHT22;3243;50.958;7.012;2023-02-14T13:25:17;11.90;99.90
6421;DHT22;3243;50.958;7.012;2023-02-14T13:27:47;12.00;99.90
6421;DHT22;3243;50.958;7.012;2023-02-14T13:30:26;12.00;99.90
6421;DHT22;3243;50.958;7.012;2023-02-14T13:32:57;12.10;99.90
6421;DHT22;3243;50.958;7.012;2023-02-14T13:35:27;12.10;99.90
6421;DHT22;3243;50.958;7.012;2023-02-14T13:37:59;12.20;99.90
6421;DHT22;3243;50.958;7.012;2023-02-14T13:40:28;12.20;99.90
6421;DHT22;3243;50.958;7.012;2023-02-14T13:43:00;12.20;99.90
6421;DHT22;3243;50.958;7.012;2023-02-14T13:48:24;12.20;99.90
6421;DHT22;3243;50.958;7.012;2023-02-14T13:56:03;12.30;99.90
6421;DHT22;3243;50.958;7.012;2023-02-14T13:58:32;12.30;99.90
6421;DHT22;3243;50.958;7.012;2023-02-14T14:03:58;12.30;99.90
6421;DHT22;3243;50.958;7.012;2023-02-14T14:06:26;14.50;99.90
6421;DHT22;3243;50.958;7.012;2023-02-14T14:08:54;12.40;99.90
6421;DHT22;3243;50.958;7.012;2023-02-14T14:19:03;12.40;99.90
6421;DHT22;3243;50.958;7.012;2023-02-14T14:21:37;12.40;99.90
6421;DHT22;3243;50.958;7.012;2023-02-14T14:24:25;12.40;99.90
6421;DHT22;3243;50.958;7.012;2023-02-14T14:29:38;12.40;99.90
6421;DHT22;3243;50.958;7.012;2023-02-14T14:34:55;12.40;99.90
6421;DHT22;3243;50.958;7.012;2023-02-14T14:37:28;12.40;99.90
6421;DHT22;3243;50.958;7.012;2023-02-14T14:39:57;12.40;99.90
6421;DHT22;3243;50.958;7.012;2023-02-14T14:42:28;12.40;99.90
6421;DHT22;3243;50.958;7.012;2023-02-14T14:44:59;12.40;99.90
6421;DHT22;3243;50.958;7.012;2023-02-14T14:47:41;12.40;99.90
6421;DHT22;3243;50.958;7.012;2023-02-14T14:50:15;12.40;99.90
6421;DHT22;3243;50.958;7.012;2023-02-14T14:52:46;12.40;99.90
6421;DHT22;3243;50.958;7.012;2023-02-14T14:55:20;12.40;99.90
6421;DHT22;3243;50.958;7.012;2023-02-14T14:57:57;12.40;99.90
6421;DHT22;3243;50.958;7.012;2023-02-14T15:00:27;12.40;99.90
6421;DHT22;3243;50.958;7.012;2023-02-14T15:05:48;12.40;99.90
6421;DHT22;3243;50.958;7.012;2023-02-14T15:08:41;12.40;99.90
6421;DHT22;3243;50.958;7.012;2023-02-14T15:11:21;12.40;99.90
6421;DHT22;3243;50.958;7.012;2023-02-14T15:14:14;12.40;99.90
6421;DHT22;3243;50.958;7.012;2023-02-14T15:19:47;12.40;99.90
6421;DHT22;3243;50.958;7.012;2023-02-14T15:22:25;12.30;99.90
6421;DHT22;3243;50.958;7.012;2023-02-14T15:24:56;12.20;99.90
6421;DHT22;3243;50.958;7.012;2023-02-14T15:27:24;12.10;99.90
6421;DHT22;3243;50.958;7.012;2023-02-14T15:30:00;12.00;99.90
6421;DHT22;3243;50.958;7.012;2023-02-14T15:32:30;12.00;99.90
6421;DHT22;3243;50.958;7.012;2023-02-14T15:35:00;11.90;99.90
6421;DHT22;3243;50.958;7.012;2023-02-14T15:37:27;11.90;99.90
6421;DHT22;3243;50.958;7.012;2023-02-14T15:39:54;11.80;99.90
6421;DHT22;3243;50.958;7.012;2023-02-14T15:42:27;11.80;99.90
6421;DHT22;3243;50.958;7.012;2023-02-14T15:45:14;11.70;99.90
6421;DHT22;3243;50.958;7.012;2023-02-14T15:47:43;11.60;99.90
6421;DHT22;3243;50.958;7.012;2023-02-14T15:56:02;11.40;99.90
6421;DHT22;3243;50.958;7.012;2023-02-14T15:58:30;11.40;99.90
6421;DHT22;3243;50.958;7.012;2023-02-14T16:00:58;11.30;99.90
6421;DHT22;3243;50.958;7.012;2023-02-14T16:03:29;11.20;99.90
6421;DHT22;3243;50.958;7.012;2023-02-14T16:05:59;11.10;99.90
6421;DHT22;3243;50.958;7.012;2023-02-14T16:08:39;11.00;99.90
6421;DHT22;3243;50.958;7.012;2023-02-14T16:11:14;11.00;99.90
6421;DHT22;3243;50.958;7.012;2023-02-14T16:13:51;10.80;99.90
6421;DHT22;3243;50.958;7.012;2023-02-14T16:16:18;10.80;99.90
6421;DHT22;3243;50.958;7.012;2023-02-14T16:18:50;10.60;99.90
6421;DHT22;3243;50.958;7.012;2023-02-14T16:21:27;10.50;99.90
6421;DHT22;3243;50.958;7.012;2023-02-14T16:26:35;10.40;99.90
6421;DHT22;3243;50.958;7.012;2023-02-14T16:29:04;10.30;99.90
6421;DHT22;3243;50.958;7.012;2023-02-14T16:31:32;10.30;99.90
6421;DHT22;3243;50.958;7.012;2023-02-14T16:33:59;10.30;99.90
6421;DHT22;3243;50.958;7.012;2023-02-14T16:36:31;10.20;99.90
6421;DHT22;3243;50.958;7.012;2023-02-14T16:39:02;10.20;99.90
6421;DHT22;3243;50.958;7.012;2023-02-14T16:41:33;10.10;99.90
6421;DHT22;3243;50.958;7.012;2023-02-14T16:44:00;10.00;99.90
6421;DHT22;3243;50.958;7.012;2023-02-14T16:46:31;9.80;99.90
6421;DHT22;3243;50.958;7.012;2023-02-14T16:49:00;9.80;99.90
6421;DHT22;3243;50.958;7.012;2023-02-14T16:51:30;9.60;99.90
6421;DHT22;3243;50.958;7.012;2023-02-14T16:53:59;9.60;99.90
6421;DHT22;3243;50.958;7.012;2023-02-14T16:56:42;9.60;99.90
6421;DHT22;3243;50.958;7.012;2023-02-14T16:59:09;9.50;99.90
6421;DHT22;3243;50.958;7.012;2023-02-14T17:01:36;9.40;99.90
6421;DHT22;3243;50.958;7.012;2023-02-14T17:04:03;9.30;99.90
6421;DHT22;3243;50.958;7.012;2023-02-14T17:06:30;9.20;99.90
6421;DHT22;3243;50.958;7.012;2023-02-14T17:09:00;9.10;99.90
6421;DHT22;3243;50.958;7.012;2023-02-14T17:11:29;9.00;99.90
6421;DHT22;3243;50.958;7.012;2023-02-14T17:13:57;9.00;99.90
6421;DHT22;3243;50.958;7.012;2023-02-14T17:16:24;8.80;99.90
6421;DHT22;3243;50.958;7.012;2023-02-14T17:18:51;8.80;99.90
6421;DHT22;3243;50.958;7.012;2023-02-14T17:21:22;8.80;99.90
6421;DHT22;3243;50.958;7.012;2023-02-14T17:23:49;8.70;99.90
6421;DHT22;3243;50.958;7.012;2023-02-14T17:26:16;8.60;99.90
6421;DHT22;3243;50.958;7.012;2023-02-14T17:28:46;8.60;99.90
6421;DHT22;3243;50.958;7.012;2023-02-14T17:31:13;8.50;99.90
6421;DHT22;3243;50.958;7.012;2023-02-14T17:33:40;8.50;99.90
6421;DHT22;3243;50.958;7.012;2023-02-14T17:36:09;8.40;99.90
6421;DHT22;3243;50.958;7.012;2023-02-14T17:38:39;8.50;99.90
6421;DHT22;3243;50.958;7.012;2023-02-14T17:41:17;8.30;99.90
6421;DHT22;3243;50.958;7.012;2023-02-14T17:43:45;8.30;99.90
6421;DHT22;3243;50.958;7.012;2023-02-14T17:46:11;8.30;99.90
6421;DHT22;3243;50.958;7.012;2023-02-14T17:48:41;8.20;99.90
6421;DHT22;3243;50.958;7.012;2023-02-14T17:51:11;8.20;99.90
6421;DHT22;3243;50.958;7.012;2023-02-14T17:53:38;8.10;99.90
6421;DHT22;3243;50.958;7.012;2023-02-14T17:56:17;8.00;99.90
6421;DHT22;3243;50.958;7.012;2023-02-14T17:58:45;8.00;99.90
6421;DHT22;3243;50.958;7.012;2023-02-14T18:01:21;7.90;99.90
6421;DHT22;3243;50.958;7.012;2023-02-14T18:03:49;7.80;99.90
6421;DHT22;3243;50.958;7.012;2023-02-14T18:06:17;7.90;99.90
6421;DHT22;3243;50.958;7.012;2023-02-14T18:08:48;7.70;99.90
6421;DHT22;3243;50.958;7.012;2023-02-14T18:11:18;7.70;99.90
6421;DHT22;3243;50.958;7.012;2023-02-14T18:13:46;7.60;99.90
6421;DHT22;3243;50.958;7.012;2023-02-14T18:16:16;7.50;99.90
6421;DHT22;3243;50.958;7.012;2023-02-14T18:18:44;7.50;99.90
6421;DHT22;3243;50.958;7.012;2023-02-14T18:21:12;7.40;99.90
6421;DHT22;3243;50.958;7.012;2023-02-14T18:23:40;7.40;99.90
6421;DHT22;3243;50.958;7.012;2023-02-14T18:26:12;7.30;99.90
6421;DHT22;3243;50.958;7.012;2023-02-14T18:28:40;7.20;99.90
6421;DHT22;3243;50.958;7.012;2023-02-14T18:31:10;7.20;99.90
6421;DHT22;3243;50.958;7.012;2023-02-14T18:33:37;7.10;99.90
6421;DHT22;3243;50.958;7.012;2023-02-14T18:36:09;6.90;99.90
6421;DHT22;3243;50.958;7.012;2023-02-14T18:38:41;7.00;99.90
6421;DHT22;3243;50.958;7.012;2023-02-14T18:41:12;6.90;99.90
6421;DHT22;3243;50.958;7.012;2023-02-14T18:43:39;6.90;99.90
6421;DHT22;3243;50.958;7.012;2023-02-14T18:46:23;6.80;99.90
6421;DHT22;3243;50.958;7.012;2023-02-14T18:48:50;6.80;99.90
6421;DHT22;3243;50.958;7.012;2023-02-14T18:51:23;6.70;99.90
6421;DHT22;3243;50.958;7.012;2023-02-14T18:53:51;6.70;99.90
6421;DHT22;3243;50.958;7.012;2023-02-14T18:56:20;6.70;99.90
6421;DHT22;3243;50.958;7.012;2023-02-14T18:58:49;6.50;99.90
6421;DHT22;3243;50.958;7.012;2023-02-14T19:01:24;6.60;99.90
6421;DHT22;3243;50.958;7.012;2023-02-14T19:03:54;6.50;99.90
6421;DHT22;3243;50.958;7.012;2023-02-14T19:06:22;6.50;99.90
6421;DHT22;3243;50.958;7.012;2023-02-14T19:08:50;6.40;99.90
6421;DHT22;3243;50.958;7.012;2023-02-14T19:11:23;6.40;99.90
6421;DHT22;3243;50.958;7.012;2023-02-14T19:13:52;6.40;99.90
6421;DHT22;3243;50.958;7.012;2023-02-14T19:16:21;6.40;99.90
6421;DHT22;3243;50.958;7.012;2023-02-14T19:18:49;6.30;99.90
6421;DHT22;3243;50.958;7.012;2023-02-14T19:21:21;6.30;99.90
6421;DHT22;3243;50.958;7.012;2023-02-14T19:23:49;6.20;99.90
6421;DHT22;3243;50.958;7.012;2023-02-14T19:26:21;6.20;99.90
6421;DHT22;3243;50.958;7.012;2023-02-14T19:28:52;6.20;99.90
6421;DHT22;3243;50.958;7.012;2023-02-14T19:31:19;6.20;99.90
6421;DHT22;3243;50.958;7.012;2023-02-14T19:33:47;6.10;99.90
6421;DHT22;3243;50.958;7.012;2023-02-14T19:36:15;6.10;99.90
6421;DHT22;3243;50.958;7.012;2023-02-14T19:38:45;6.00;99.90
6421;DHT22;3243;50.958;7.012;2023-02-14T19:41:21;6.00;99.90